sensor_id;sensor_type;location;lat;lon;timestamp;P1;durP1;ratioP1;P2;durP2;ratioP2
27558;SDS011;15002;52.028;5.670;2023-04-08T00:01:52;52.88;;;17.35;;
27558;SDS011;15002;52.028;5.670;2023-04-08T00:04:18;41.92;;;17.70;;
27558;SDS011;15002;52.028;5.670;2023-04-08T00:06:44;31.65;;;14.77;;
27558;SDS011;15002;52.028;5.670;2023-04-08T00:09:10;33.88;;;14.07;;
27558;SDS011;15002;52.028;5.670;2023-04-08T00:11:35;30.95;;;15.38;;
27558;SDS011;15002;52.028;5.670;2023-04-08T00:14:02;35.20;;;14.32;;
27558;SDS011;15002;52.028;5.670;2023-04-08T00:16:28;32.60;;;13.70;;
27558;SDS011;15002;52.028;5.670;2023-04-08T00:18:54;33.33;;;14.52;;
27558;SDS011;15002;52.028;5.670;2023-04-08T00:21:20;38.15;;;14.18;;
27558;SDS011;15002;52.028;5.670;2023-04-08T00:23:47;30.45;;;14.93;;
27558;SDS011;15002;52.028;5.670;2023-04-08T00:26:13;41.42;;;14.48;;
27558;SDS011;15002;52.028;5.670;2023-04-08T00:28:39;33.22;;;13.88;;
27558;SDS011;15002;52.028;5.670;2023-04-08T00:31:06;37.60;;;15.13;;
27558;SDS011;15002;52.028;5.670;2023-04-08T00:33:32;28.52;;;14.75;;
27558;SDS011;15002;52.028;5.670;2023-04-08T00:35:58;45.28;;;17.58;;
27558;SDS011;15002;52.028;5.670;2023-04-08T00:38:23;38.22;;;14.57;;
27558;SDS011;15002;52.028;5.670;2023-04-08T00:40:49;31.95;;;14.38;;
27558;SDS011;15002;52.028;5.670;2023-04-08T00:43:15;41.28;;;14.98;;
27558;SDS011;15002;52.028;5.670;2023-04-08T00:45:44;33.97;;;15.13;;
27558;SDS011;15002;52.028;5.670;2023-04-08T00:48:10;110.10;;;15.45;;
27558;SDS011;15002;52.028;5.670;2023-04-08T00:50:36;53.03;;;16.02;;
27558;SDS011;15002;52.028;5.670;2023-04-08T00:53:01;34.22;;;15.13;;
27558;SDS011;15002;52.028;5.670;2023-04-08T00:55:27;51.25;;;15.18;;
27558;SDS011;15002;52.028;5.670;2023-04-08T00:57:52;38.70;;;14.43;;
27558;SDS011;15002;52.028;5.670;2023-04-08T01:00:19;40.10;;;14.10;;
27558;SDS011;15002;52.028;5.670;2023-04-08T01:08:08;76.80;;;14.90;;
27558;SDS011;15002;52.028;5.670;2023-04-08T01:10:36;70.72;;;13.95;;
27558;SDS011;15002;52.028;5.670;2023-04-08T01:15:34;118.20;;;15.45;;
27558;SDS011;15002;52.028;5.670;2023-04-08T01:18:05;61.35;;;13.88;;
27558;SDS011;15002;52.028;5.670;2023-04-08T01:20:32;27.70;;;12.95;;
27558;SDS011;15002;52.028;5.670;2023-04-08T01:26:02;57.28;;;13.07;;
27558;SDS011;15002;52.028;5.670;2023-04-08T01:28:28;30.00;;;11.60;;
27558;SDS011;15002;52.028;5.670;2023-04-08T01:30:55;41.45;;;11.98;;
27558;SDS011;15002;52.028;5.670;2023-04-08T01:33:23;35.53;;;11.75;;
27558;SDS011;15002;52.028;5.670;2023-04-08T01:35:51;39.38;;;11.60;;
27558;SDS011;15002;52.028;5.670;2023-04-08T01:38:19;81.25;;;11.90;;
27558;SDS011;15002;52.028;5.670;2023-04-08T01:40:48;48.92;;;11.00;;
27558;SDS011;15002;52.028;5.670;2023-04-08T01:43:15;39.30;;;10.07;;
27558;SDS011;15002;52.028;5.670;2023-04-08T01:45:43;42.17;;;11.43;;
27558;SDS011;15002;52.028;5.670;2023-04-08T01:48:11;38.75;;;11.35;;
27558;SDS011;15002;52.028;5.670;2023-04-08T01:50:39;78.18;;;10.55;;
27558;SDS011;15002;52.028;5.670;2023-04-08T01:53:07;48.80;;;9.85;;
27558;SDS011;15002;52.028;5.670;2023-04-08T01:55:34;35.00;;;10.43;;
27558;SDS011;15002;52.028;5.670;2023-04-08T01:58:01;43.92;;;9.48;;
27558;SDS011;15002;52.028;5.670;2023-04-08T02:00:30;75.20;;;10.50;;
27558;SDS011;15002;52.028;5.670;2023-04-08T02:02:58;24.55;;;10.77;;
27558;SDS011;15002;52.028;5.670;2023-04-08T02:05:24;27.38;;;10.25;;
27558;SDS011;15002;52.028;5.670;2023-04-08T02:07:50;40.65;;;10.77;;
27558;SDS011;15002;52.028;5.670;2023-04-08T02:10:16;24.13;;;10.02;;
27558;SDS011;15002;52.028;5.670;2023-04-08T02:12:42;54.75;;;10.50;;
27558;SDS011;15002;52.028;5.670;2023-04-08T02:15:08;33.08;;;10.63;;
27558;SDS011;15002;52.028;5.670;2023-04-08T02:20:15;42.72;;;9.77;;
27558;SDS011;15002;52.028;5.670;2023-04-08T02:25:27;55.88;;;8.75;;
27558;SDS011;15002;52.028;5.670;2023-04-08T02:27:54;16.38;;;8.55;;
27558;SDS011;15002;52.028;5.670;2023-04-08T02:30:20;28.75;;;9.27;;
27558;SDS011;15002;52.028;5.670;2023-04-08T02:32:48;18.20;;;8.73;;
27558;SDS011;15002;52.028;5.670;2023-04-08T02:35:15;24.38;;;8.70;;
27558;SDS011;15002;52.028;5.670;2023-04-08T02:37:42;31.15;;;9.00;;
27558;SDS011;15002;52.028;5.670;2023-04-08T02:40:26;34.90;;;9.07;;
27558;SDS011;15002;52.028;5.670;2023-04-08T02:42:52;36.50;;;9.73;;
27558;SDS011;15002;52.028;5.670;2023-04-08T02:45:18;26.95;;;9.52;;
27558;SDS011;15002;52.028;5.670;2023-04-08T02:47:44;76.80;;;9.73;;
27558;SDS011;15002;52.028;5.670;2023-04-08T02:50:09;23.05;;;8.13;;
27558;SDS011;15002;52.028;5.670;2023-04-08T02:52:35;26.63;;;9.15;;
27558;SDS011;15002;52.028;5.670;2023-04-08T02:55:01;36.85;;;9.40;;
27558;SDS011;15002;52.028;5.670;2023-04-08T02:57:26;35.67;;;8.82;;
27558;SDS011;15002;52.028;5.670;2023-04-08T02:59:52;49.15;;;9.10;;
27558;SDS011;15002;52.028;5.670;2023-04-08T03:02:18;64.63;;;8.63;;
27558;SDS011;15002;52.028;5.670;2023-04-08T03:04:43;57.50;;;9.90;;
27558;SDS011;15002;52.028;5.670;2023-04-08T03:07:09;17.35;;;8.10;;
27558;SDS011;15002;52.028;5.670;2023-04-08T03:09:35;15.30;;;9.13;;
27558;SDS011;15002;52.028;5.670;2023-04-08T03:12:00;18.98;;;9.32;;
27558;SDS011;15002;52.028;5.670;2023-04-08T03:14:26;12.57;;;9.38;;
27558;SDS011;15002;52.028;5.670;2023-04-08T03:16:52;36.90;;;9.48;;
27558;SDS011;15002;52.028;5.670;2023-04-08T03:19:17;26.75;;;9.57;;
27558;SDS011;15002;52.028;5.670;2023-04-08T03:21:43;29.77;;;9.10;;
27558;SDS011;15002;52.028;5.670;2023-04-08T03:24:08;16.45;;;9.38;;
27558;SDS011;15002;52.028;5.670;2023-04-08T03:26:34;18.05;;;9.18;;
27558;SDS011;15002;52.028;5.670;2023-04-08T03:29:00;24.50;;;9.23;;
27558;SDS011;15002;52.028;5.670;2023-04-08T03:31:26;22.65;;;9.50;;
27558;SDS011;15002;52.028;5.670;2023-04-08T03:33:51;28.77;;;9.73;;
27558;SDS011;15002;52.028;5.670;2023-04-08T03:36:17;22.25;;;9.80;;
27558;SDS011;15002;52.028;5.670;2023-04-08T03:38:43;24.17;;;9.13;;
27558;SDS011;15002;52.028;5.670;2023-04-08T03:41:09;21.55;;;9.73;;
27558;SDS011;15002;52.028;5.670;2023-04-08T03:43:34;13.88;;;9.80;;
27558;SDS011;15002;52.028;5.670;2023-04-08T03:46:00;18.90;;;9.98;;
27558;SDS011;15002;52.028;5.670;2023-04-08T03:48:26;39.10;;;9.98;;
27558;SDS011;15002;52.028;5.670;2023-04-08T03:50:52;32.25;;;10.02;;
27558;SDS011;15002;52.028;5.670;2023-04-08T03:53:17;31.75;;;9.77;;
27558;SDS011;15002;52.028;5.670;2023-04-08T03:55:43;20.02;;;9.82;;
27558;SDS011;15002;52.028;5.670;2023-04-08T03:58:09;24.23;;;9.73;;
27558;SDS011;15002;52.028;5.670;2023-04-08T04:00:34;17.48;;;10.70;;
27558;SDS011;15002;52.028;5.670;2023-04-08T04:03:00;16.15;;;9.85;;
27558;SDS011;15002;52.028;5.670;2023-04-08T04:05:26;23.10;;;9.85;;
27558;SDS011;15002;52.028;5.670;2023-04-08T04:07:52;16.92;;;10.18;;
27558;SDS011;15002;52.028;5.670;2023-04-08T04:10:17;16.58;;;9.30;;
27558;SDS011;15002;52.028;5.670;2023-04-08T04:12:43;28.02;;;9.75;;
27558;SDS011;15002;52.028;5.670;2023-04-08T04:15:09;17.38;;;8.63;;
27558;SDS011;15002;52.028;5.670;2023-04-08T04:17:35;18.95;;;9.90;;
27558;SDS011;15002;52.028;5.670;2023-04-08T04:20:02;13.00;;;9.32;;
27558;SDS011;15002;52.028;5.670;2023-04-08T04:22:29;12.95;;;9.25;;
27558;SDS011;15002;52.028;5.670;2023-04-08T04:24:55;11.93;;;8.30;;
27558;SDS011;15002;52.028;5.670;2023-04-08T04:27:20;14.10;;;9.10;;
27558;SDS011;15002;52.028;5.670;2023-04-08T04:29:46;13.73;;;9.15;;
27558;SDS011;15002;52.028;5.670;2023-04-08T04:32:12;12.63;;;8.55;;
27558;SDS011;15002;52.028;5.670;2023-04-08T04:34:37;12.40;;;8.57;;
27558;SDS011;15002;52.028;5.670;2023-04-08T04:37:03;12.63;;;8.30;;
27558;SDS011;15002;52.028;5.670;2023-04-08T04:39:28;13.35;;;9.25;;
27558;SDS011;15002;52.028;5.670;2023-04-08T04:41:54;14.35;;;9.32;;
27558;SDS011;15002;52.028;5.670;2023-04-08T04:44:20;13.35;;;10.35;;
27558;SDS011;15002;52.028;5.670;2023-04-08T04:46:45;12.77;;;8.27;;
27558;SDS011;15002;52.028;5.670;2023-04-08T04:49:11;12.15;;;8.27;;
27558;SDS011;15002;52.028;5.670;2023-04-08T04:51:37;11.10;;;8.68;;
27558;SDS011;15002;52.028;5.670;2023-04-08T04:54:02;13.15;;;9.68;;
27558;SDS011;15002;52.028;5.670;2023-04-08T04:56:28;13.23;;;9.98;;
27558;SDS011;15002;52.028;5.670;2023-04-08T04:58:53;13.88;;;9.52;;
27558;SDS011;15002;52.028;5.670;2023-04-08T05:01:19;13.50;;;8.95;;
27558;SDS011;15002;52.028;5.670;2023-04-08T05:03:45;16.45;;;8.55;;
27558;SDS011;15002;52.028;5.670;2023-04-08T05:06:11;15.63;;;8.88;;
27558;SDS011;15002;52.028;5.670;2023-04-08T05:08:36;13.57;;;9.30;;
27558;SDS011;15002;52.028;5.670;2023-04-08T05:11:02;13.27;;;9.82;;
27558;SDS011;15002;52.028;5.670;2023-04-08T05:13:28;13.43;;;9.05;;
27558;SDS011;15002;52.028;5.670;2023-04-08T05:15:53;12.65;;;9.10;;
27558;SDS011;15002;52.028;5.670;2023-04-08T05:18:19;17.55;;;10.43;;
27558;SDS011;15002;52.028;5.670;2023-04-08T05:20:45;18.55;;;10.85;;
27558;SDS011;15002;52.028;5.670;2023-04-08T05:23:10;16.20;;;10.20;;
27558;SDS011;15002;52.028;5.670;2023-04-08T05:25:36;16.77;;;10.48;;
27558;SDS011;15002;52.028;5.670;2023-04-08T05:28:02;19.10;;;10.98;;
27558;SDS011;15002;52.028;5.670;2023-04-08T05:30:28;14.88;;;10.15;;
27558;SDS011;15002;52.028;5.670;2023-04-08T05:32:54;13.23;;;9.55;;
27558;SDS011;15002;52.028;5.670;2023-04-08T05:35:20;19.15;;;10.23;;
27558;SDS011;15002;52.028;5.670;2023-04-08T05:37:46;17.38;;;9.60;;
27558;SDS011;15002;52.028;5.670;2023-04-08T05:40:11;13.98;;;8.80;;
27558;SDS011;15002;52.028;5.670;2023-04-08T05:42:37;20.05;;;9.52;;
27558;SDS011;15002;52.028;5.670;2023-04-08T05:45:03;13.98;;;9.57;;
27558;SDS011;15002;52.028;5.670;2023-04-08T05:47:29;20.25;;;9.25;;
27558;SDS011;15002;52.028;5.670;2023-04-08T05:49:55;31.92;;;10.02;;
27558;SDS011;15002;52.028;5.670;2023-04-08T05:52:21;12.95;;;8.63;;
27558;SDS011;15002;52.028;5.670;2023-04-08T05:54:46;14.40;;;9.07;;
27558;SDS011;15002;52.028;5.670;2023-04-08T05:57:12;15.73;;;10.15;;
27558;SDS011;15002;52.028;5.670;2023-04-08T05:59:37;21.63;;;9.18;;
27558;SDS011;15002;52.028;5.670;2023-04-08T06:02:03;20.60;;;9.88;;
27558;SDS011;15002;52.028;5.670;2023-04-08T06:04:29;13.45;;;8.95;;
27558;SDS011;15002;52.028;5.670;2023-04-08T06:06:55;13.32;;;8.77;;
27558;SDS011;15002;52.028;5.670;2023-04-08T06:09:25;13.82;;;8.95;;
27558;SDS011;15002;52.028;5.670;2023-04-08T06:11:50;13.02;;;8.45;;
27558;SDS011;15002;52.028;5.670;2023-04-08T06:14:16;13.27;;;9.25;;
27558;SDS011;15002;52.028;5.670;2023-04-08T06:16:42;11.48;;;8.43;;
27558;SDS011;15002;52.028;5.670;2023-04-08T06:19:08;10.88;;;8.20;;
27558;SDS011;15002;52.028;5.670;2023-04-08T06:21:33;12.05;;;8.73;;
27558;SDS011;15002;52.028;5.670;2023-04-08T06:23:59;14.98;;;8.88;;
27558;SDS011;15002;52.028;5.670;2023-04-08T06:26:25;9.85;;;7.50;;
27558;SDS011;15002;52.028;5.670;2023-04-08T06:28:51;12.45;;;7.80;;
27558;SDS011;15002;52.028;5.670;2023-04-08T06:31:18;10.13;;;8.50;;
27558;SDS011;15002;52.028;5.670;2023-04-08T06:33:45;9.98;;;7.90;;
27558;SDS011;15002;52.028;5.670;2023-04-08T06:36:11;11.43;;;8.45;;
27558;SDS011;15002;52.028;5.670;2023-04-08T06:38:37;10.68;;;8.63;;
27558;SDS011;15002;52.028;5.670;2023-04-08T06:41:03;10.50;;;7.93;;
27558;SDS011;15002;52.028;5.670;2023-04-08T06:43:30;9.73;;;7.32;;
27558;SDS011;15002;52.028;5.670;2023-04-08T06:45:56;8.18;;;7.35;;
27558;SDS011;15002;52.028;5.670;2023-04-08T06:48:22;9.68;;;8.00;;
27558;SDS011;15002;52.028;5.670;2023-04-08T06:50:52;9.35;;;7.60;;
27558;SDS011;15002;52.028;5.670;2023-04-08T06:53:19;10.02;;;7.90;;
27558;SDS011;15002;52.028;5.670;2023-04-08T06:55:47;9.93;;;8.13;;
27558;SDS011;15002;52.028;5.670;2023-04-08T06:58:13;11.65;;;7.93;;
27558;SDS011;15002;52.028;5.670;2023-04-08T07:00:38;12.48;;;8.18;;
27558;SDS011;15002;52.028;5.670;2023-04-08T07:03:04;9.27;;;7.82;;
27558;SDS011;15002;52.028;5.670;2023-04-08T07:05:29;9.18;;;7.82;;
27558;SDS011;15002;52.028;5.670;2023-04-08T07:07:55;9.52;;;7.00;;
27558;SDS011;15002;52.028;5.670;2023-04-08T07:10:21;10.93;;;7.88;;
27558;SDS011;15002;52.028;5.670;2023-04-08T07:12:46;9.45;;;7.22;;
27558;SDS011;15002;52.028;5.670;2023-04-08T07:15:12;8.82;;;7.30;;
27558;SDS011;15002;52.028;5.670;2023-04-08T07:17:38;9.00;;;7.22;;
27558;SDS011;15002;52.028;5.670;2023-04-08T07:20:04;7.68;;;6.43;;
27558;SDS011;15002;52.028;5.670;2023-04-08T07:22:30;10.27;;;7.25;;
27558;SDS011;15002;52.028;5.670;2023-04-08T07:24:57;8.60;;;6.40;;
27558;SDS011;15002;52.028;5.670;2023-04-08T07:27:23;8.90;;;7.13;;
27558;SDS011;15002;52.028;5.670;2023-04-08T07:29:52;7.85;;;6.95;;
27558;SDS011;15002;52.028;5.670;2023-04-08T07:32:20;8.00;;;6.85;;
27558;SDS011;15002;52.028;5.670;2023-04-08T07:34:46;11.40;;;6.93;;
27558;SDS011;15002;52.028;5.670;2023-04-08T07:37:12;7.55;;;6.72;;
27558;SDS011;15002;52.028;5.670;2023-04-08T07:39:37;8.70;;;6.78;;
27558;SDS011;15002;52.028;5.670;2023-04-08T07:42:03;7.68;;;6.75;;
27558;SDS011;15002;52.028;5.670;2023-04-08T07:44:28;8.15;;;6.82;;
27558;SDS011;15002;52.028;5.670;2023-04-08T07:46:54;7.32;;;6.60;;
27558;SDS011;15002;52.028;5.670;2023-04-08T07:49:20;8.52;;;7.18;;
27558;SDS011;15002;52.028;5.670;2023-04-08T07:51:45;9.15;;;7.43;;
27558;SDS011;15002;52.028;5.670;2023-04-08T07:54:11;8.65;;;7.50;;
27558;SDS011;15002;52.028;5.670;2023-04-08T07:56:41;8.73;;;7.80;;
27558;SDS011;15002;52.028;5.670;2023-04-08T07:59:08;9.43;;;8.00;;
27558;SDS011;15002;52.028;5.670;2023-04-08T08:01:37;9.48;;;7.72;;
27558;SDS011;15002;52.028;5.670;2023-04-08T08:04:03;9.07;;;8.18;;
27558;SDS011;15002;52.028;5.670;2023-04-08T08:06:28;11.68;;;8.52;;
27558;SDS011;15002;52.028;5.670;2023-04-08T08:08:56;9.73;;;7.78;;
27558;SDS011;15002;52.028;5.670;2023-04-08T08:11:22;11.05;;;8.63;;
27558;SDS011;15002;52.028;5.670;2023-04-08T08:13:52;11.27;;;8.10;;
27558;SDS011;15002;52.028;5.670;2023-04-08T08:16:18;9.10;;;8.05;;
27558;SDS011;15002;52.028;5.670;2023-04-08T08:18:43;10.52;;;8.38;;
27558;SDS011;15002;52.028;5.670;2023-04-08T08:21:09;10.80;;;8.32;;
27558;SDS011;15002;52.028;5.670;2023-04-08T08:23:35;9.70;;;8.63;;
27558;SDS011;15002;52.028;5.670;2023-04-08T08:26:05;10.48;;;8.68;;
27558;SDS011;15002;52.028;5.670;2023-04-08T08:28:33;9.52;;;8.50;;
27558;SDS011;15002;52.028;5.670;2023-04-08T08:31:00;10.70;;;9.07;;
27558;SDS011;15002;52.028;5.670;2023-04-08T08:33:26;9.60;;;8.50;;
27558;SDS011;15002;52.028;5.670;2023-04-08T08:35:52;12.82;;;9.65;;
27558;SDS011;15002;52.028;5.670;2023-04-08T08:38:17;11.88;;;9.00;;
27558;SDS011;15002;52.028;5.670;2023-04-08T08:40:43;12.05;;;9.10;;
27558;SDS011;15002;52.028;5.670;2023-04-08T08:43:09;11.63;;;8.95;;
27558;SDS011;15002;52.028;5.670;2023-04-08T08:45:39;10.30;;;8.95;;
27558;SDS011;15002;52.028;5.670;2023-04-08T08:48:05;12.43;;;9.45;;
27558;SDS011;15002;52.028;5.670;2023-04-08T08:50:34;13.50;;;9.88;;
27558;SDS011;15002;52.028;5.670;2023-04-08T08:53:00;11.38;;;9.25;;
27558;SDS011;15002;52.028;5.670;2023-04-08T08:55:28;10.82;;;9.70;;
27558;SDS011;15002;52.028;5.670;2023-04-08T08:57:56;12.17;;;10.03;;
27558;SDS011;15002;52.028;5.670;2023-04-08T09:00:32;11.40;;;9.20;;
27558;SDS011;15002;52.028;5.670;2023-04-08T09:03:22;11.48;;;9.32;;
27558;SDS011;15002;52.028;5.670;2023-04-08T09:05:48;13.50;;;10.10;;
27558;SDS011;15002;52.028;5.670;2023-04-08T09:08:23;14.85;;;9.57;;
27558;SDS011;15002;52.028;5.670;2023-04-08T09:13:41;13.35;;;10.65;;
27558;SDS011;15002;52.028;5.670;2023-04-08T09:16:09;11.50;;;9.85;;
27558;SDS011;15002;52.028;5.670;2023-04-08T09:18:37;14.68;;;10.35;;
27558;SDS011;15002;52.028;5.670;2023-04-08T09:21:03;15.70;;;11.30;;
27558;SDS011;15002;52.028;5.670;2023-04-08T09:23:36;13.30;;;10.32;;
27558;SDS011;15002;52.028;5.670;2023-04-08T09:29:14;12.65;;;10.15;;
27558;SDS011;15002;52.028;5.670;2023-04-08T09:31:40;13.35;;;10.18;;
27558;SDS011;15002;52.028;5.670;2023-04-08T09:36:34;12.05;;;9.55;;
27558;SDS011;15002;52.028;5.670;2023-04-08T09:39:00;12.50;;;9.93;;
27558;SDS011;15002;52.028;5.670;2023-04-08T09:41:25;12.50;;;10.27;;
27558;SDS011;15002;52.028;5.670;2023-04-08T09:43:54;12.63;;;9.48;;
27558;SDS011;15002;52.028;5.670;2023-04-08T09:49:12;14.03;;;9.27;;
27558;SDS011;15002;52.028;5.670;2023-04-08T09:54:31;15.07;;;10.75;;
27558;SDS011;15002;52.028;5.670;2023-04-08T09:57:24;11.05;;;9.25;;
27558;SDS011;15002;52.028;5.670;2023-04-08T10:00:59;13.63;;;9.77;;
27558;SDS011;15002;52.028;5.670;2023-04-08T10:05:52;14.38;;;10.45;;
27558;SDS011;15002;52.028;5.670;2023-04-08T10:08:18;13.27;;;10.15;;
27558;SDS011;15002;52.028;5.670;2023-04-08T10:10:44;11.13;;;9.55;;
27558;SDS011;15002;52.028;5.670;2023-04-08T10:13:11;12.40;;;9.30;;
27558;SDS011;15002;52.028;5.670;2023-04-08T10:15:37;11.20;;;9.30;;
27558;SDS011;15002;52.028;5.670;2023-04-08T10:23:02;10.55;;;8.52;;
27558;SDS011;15002;52.028;5.670;2023-04-08T10:25:35;9.93;;;8.27;;
27558;SDS011;15002;52.028;5.670;2023-04-08T10:30:46;9.85;;;7.95;;
27558;SDS011;15002;52.028;5.670;2023-04-08T10:33:12;12.00;;;8.93;;
27558;SDS011;15002;52.028;5.670;2023-04-08T10:35:46;13.15;;;8.43;;
27558;SDS011;15002;52.028;5.670;2023-04-08T10:38:13;11.10;;;8.02;;
27558;SDS011;15002;52.028;5.670;2023-04-08T10:40:41;10.05;;;7.70;;
27558;SDS011;15002;52.028;5.670;2023-04-08T10:43:08;13.88;;;8.27;;
27558;SDS011;15002;52.028;5.670;2023-04-08T10:45:35;11.98;;;8.90;;
27558;SDS011;15002;52.028;5.670;2023-04-08T10:48:10;11.45;;;7.78;;
27558;SDS011;15002;52.028;5.670;2023-04-08T10:53:28;10.40;;;7.25;;
27558;SDS011;15002;52.028;5.670;2023-04-08T10:56:04;13.77;;;8.02;;
27558;SDS011;15002;52.028;5.670;2023-04-08T10:58:48;12.77;;;7.40;;
27558;SDS011;15002;52.028;5.670;2023-04-08T11:01:19;10.35;;;7.75;;
27558;SDS011;15002;52.028;5.670;2023-04-08T11:03:45;13.90;;;8.68;;
27558;SDS011;15002;52.028;5.670;2023-04-08T11:06:11;11.80;;;8.02;;
27558;SDS011;15002;52.028;5.670;2023-04-08T11:08:36;12.80;;;8.05;;
27558;SDS011;15002;52.028;5.670;2023-04-08T11:11:03;13.93;;;8.35;;
27558;SDS011;15002;52.028;5.670;2023-04-08T11:13:33;14.13;;;8.18;;
27558;SDS011;15002;52.028;5.670;2023-04-08T11:16:00;13.23;;;8.13;;
27558;SDS011;15002;52.028;5.670;2023-04-08T11:18:28;11.65;;;8.02;;
27558;SDS011;15002;52.028;5.670;2023-04-08T11:20:55;13.82;;;8.70;;
27558;SDS011;15002;52.028;5.670;2023-04-08T11:23:23;11.27;;;8.40;;
27558;SDS011;15002;52.028;5.670;2023-04-08T11:25:50;13.70;;;8.63;;
27558;SDS011;15002;52.028;5.670;2023-04-08T11:28:16;12.20;;;8.55;;
27558;SDS011;15002;52.028;5.670;2023-04-08T11:30:42;10.32;;;7.80;;
27558;SDS011;15002;52.028;5.670;2023-04-08T11:33:08;16.60;;;8.52;;
27558;SDS011;15002;52.028;5.670;2023-04-08T11:35:38;11.40;;;8.18;;
27558;SDS011;15002;52.028;5.670;2023-04-08T11:38:08;11.60;;;7.80;;
27558;SDS011;15002;52.028;5.670;2023-04-08T11:40:35;13.30;;;8.65;;
27558;SDS011;15002;52.028;5.670;2023-04-08T11:43:08;11.73;;;8.55;;
27558;SDS011;15002;52.028;5.670;2023-04-08T11:45:38;12.38;;;7.97;;
27558;SDS011;15002;52.028;5.670;2023-04-08T11:48:11;12.27;;;8.05;;
27558;SDS011;15002;52.028;5.670;2023-04-08T11:50:38;14.77;;;8.27;;
27558;SDS011;15002;52.028;5.670;2023-04-08T11:53:18;12.15;;;7.22;;
27558;SDS011;15002;52.028;5.670;2023-04-08T11:55:45;12.10;;;7.85;;
27558;SDS011;15002;52.028;5.670;2023-04-08T11:58:11;11.88;;;8.60;;
27558;SDS011;15002;52.028;5.670;2023-04-08T12:00:36;12.43;;;7.95;;
27558;SDS011;15002;52.028;5.670;2023-04-08T12:03:02;15.60;;;9.60;;
27558;SDS011;15002;52.028;5.670;2023-04-08T12:05:28;13.10;;;8.35;;
27558;SDS011;15002;52.028;5.670;2023-04-08T12:07:54;11.77;;;8.32;;
27558;SDS011;15002;52.028;5.670;2023-04-08T12:10:20;11.88;;;8.40;;
27558;SDS011;15002;52.028;5.670;2023-04-08T12:12:46;10.63;;;8.15;;
27558;SDS011;15002;52.028;5.670;2023-04-08T12:15:11;12.00;;;8.63;;
27558;SDS011;15002;52.028;5.670;2023-04-08T12:17:37;11.73;;;8.32;;
27558;SDS011;15002;52.028;5.670;2023-04-08T12:20:04;11.55;;;8.30;;
27558;SDS011;15002;52.028;5.670;2023-04-08T12:22:30;11.52;;;7.75;;
27558;SDS011;15002;52.028;5.670;2023-04-08T12:24:56;9.55;;;7.72;;
27558;SDS011;15002;52.028;5.670;2023-04-08T12:27:21;9.65;;;8.10;;
27558;SDS011;15002;52.028;5.670;2023-04-08T12:29:47;11.45;;;7.97;;
27558;SDS011;15002;52.028;5.670;2023-04-08T12:32:14;10.55;;;7.78;;
27558;SDS011;15002;52.028;5.670;2023-04-08T12:34:40;12.20;;;8.63;;
27558;SDS011;15002;52.028;5.670;2023-04-08T12:37:05;10.70;;;8.23;;
27558;SDS011;15002;52.028;5.670;2023-04-08T12:39:31;10.63;;;8.07;;
27558;SDS011;15002;52.028;5.670;2023-04-08T12:41:57;10.98;;;8.48;;
27558;SDS011;15002;52.028;5.670;2023-04-08T12:44:23;10.90;;;7.93;;
27558;SDS011;15002;52.028;5.670;2023-04-08T12:46:49;11.45;;;8.95;;
27558;SDS011;15002;52.028;5.670;2023-04-08T12:49:15;11.30;;;8.52;;
27558;SDS011;15002;52.028;5.670;2023-04-08T12:51:40;12.52;;;9.23;;
27558;SDS011;15002;52.028;5.670;2023-04-08T12:54:06;11.32;;;8.20;;
27558;SDS011;15002;52.028;5.670;2023-04-08T12:56:32;10.60;;;8.20;;
27558;SDS011;15002;52.028;5.670;2023-04-08T12:58:58;10.45;;;7.70;;
27558;SDS011;15002;52.028;5.670;2023-04-08T13:01:25;11.02;;;7.93;;
27558;SDS011;15002;52.028;5.670;2023-04-08T13:03:51;10.20;;;7.80;;
27558;SDS011;15002;52.028;5.670;2023-04-08T13:06:16;11.13;;;7.68;;
27558;SDS011;15002;52.028;5.670;2023-04-08T13:08:42;10.30;;;7.90;;
27558;SDS011;15002;52.028;5.670;2023-04-08T13:11:08;11.20;;;8.68;;
27558;SDS011;15002;52.028;5.670;2023-04-08T13:13:34;9.82;;;7.53;;
27558;SDS011;15002;52.028;5.670;2023-04-08T13:16:00;10.98;;;7.68;;
27558;SDS011;15002;52.028;5.670;2023-04-08T13:18:32;9.63;;;7.72;;
27558;SDS011;15002;52.028;5.670;2023-04-08T13:20:58;13.73;;;8.63;;
27558;SDS011;15002;52.028;5.670;2023-04-08T13:23:23;11.38;;;8.50;;
27558;SDS011;15002;52.028;5.670;2023-04-08T13:25:50;9.35;;;7.35;;
27558;SDS011;15002;52.028;5.670;2023-04-08T13:28:15;9.23;;;7.07;;
27558;SDS011;15002;52.028;5.670;2023-04-08T13:30:41;11.05;;;7.57;;
27558;SDS011;15002;52.028;5.670;2023-04-08T13:33:07;9.05;;;7.00;;
27558;SDS011;15002;52.028;5.670;2023-04-08T13:35:32;8.43;;;7.15;;
27558;SDS011;15002;52.028;5.670;2023-04-08T13:37:58;8.23;;;6.20;;
27558;SDS011;15002;52.028;5.670;2023-04-08T13:40:24;9.60;;;7.22;;
27558;SDS011;15002;52.028;5.670;2023-04-08T13:42:51;10.77;;;7.82;;
27558;SDS011;15002;52.028;5.670;2023-04-08T13:45:16;9.75;;;7.25;;
27558;SDS011;15002;52.028;5.670;2023-04-08T13:47:42;9.23;;;6.72;;
27558;SDS011;15002;52.028;5.670;2023-04-08T13:50:08;11.35;;;7.30;;
27558;SDS011;15002;52.028;5.670;2023-04-08T13:52:34;9.70;;;7.13;;
27558;SDS011;15002;52.028;5.670;2023-04-08T13:55:00;10.77;;;7.25;;
27558;SDS011;15002;52.028;5.670;2023-04-08T13:57:25;9.57;;;6.78;;
27558;SDS011;15002;52.028;5.670;2023-04-08T13:59:51;9.45;;;6.55;;
27558;SDS011;15002;52.028;5.670;2023-04-08T14:02:17;10.73;;;6.72;;
27558;SDS011;15002;52.028;5.670;2023-04-08T14:04:42;7.40;;;6.47;;
27558;SDS011;15002;52.028;5.670;2023-04-08T14:07:11;9.02;;;7.15;;
27558;SDS011;15002;52.028;5.670;2023-04-08T14:09:38;9.73;;;6.88;;
27558;SDS011;15002;52.028;5.670;2023-04-08T14:12:04;8.48;;;6.80;;
27558;SDS011;15002;52.028;5.670;2023-04-08T14:14:30;9.35;;;7.07;;
27558;SDS011;15002;52.028;5.670;2023-04-08T14:16:55;9.40;;;7.00;;
27558;SDS011;15002;52.028;5.670;2023-04-08T14:19:21;8.95;;;6.95;;
27558;SDS011;15002;52.028;5.670;2023-04-08T14:21:47;7.70;;;6.45;;
27558;SDS011;15002;52.028;5.670;2023-04-08T14:24:13;8.63;;;6.40;;
27558;SDS011;15002;52.028;5.670;2023-04-08T14:26:39;10.45;;;6.78;;
27558;SDS011;15002;52.028;5.670;2023-04-08T14:29:05;9.23;;;6.85;;
27558;SDS011;15002;52.028;5.670;2023-04-08T14:31:31;8.55;;;6.65;;
27558;SDS011;15002;52.028;5.670;2023-04-08T14:33:58;10.60;;;7.35;;
27558;SDS011;15002;52.028;5.670;2023-04-08T14:36:24;11.88;;;7.30;;
27558;SDS011;15002;52.028;5.670;2023-04-08T14:38:51;9.07;;;7.80;;
27558;SDS011;15002;52.028;5.670;2023-04-08T14:41:16;11.82;;;8.68;;
27558;SDS011;15002;52.028;5.670;2023-04-08T14:43:42;11.38;;;8.52;;
27558;SDS011;15002;52.028;5.670;2023-04-08T14:46:08;12.45;;;8.30;;
27558;SDS011;15002;52.028;5.670;2023-04-08T14:48:33;10.32;;;8.13;;
27558;SDS011;15002;52.028;5.670;2023-04-08T14:50:59;10.55;;;8.30;;
27558;SDS011;15002;52.028;5.670;2023-04-08T14:53:25;14.93;;;8.50;;
27558;SDS011;15002;52.028;5.670;2023-04-08T14:55:51;10.32;;;8.25;;
27558;SDS011;15002;52.028;5.670;2023-04-08T14:58:16;11.25;;;8.25;;
27558;SDS011;15002;52.028;5.670;2023-04-08T15:00:44;11.30;;;8.40;;
27558;SDS011;15002;52.028;5.670;2023-04-08T15:03:11;10.75;;;7.50;;
27558;SDS011;15002;52.028;5.670;2023-04-08T15:05:37;9.65;;;7.22;;
27558;SDS011;15002;52.028;5.670;2023-04-08T15:08:03;8.65;;;6.85;;
27558;SDS011;15002;52.028;5.670;2023-04-08T15:10:29;11.43;;;8.30;;
27558;SDS011;15002;52.028;5.670;2023-04-08T15:12:55;11.32;;;7.75;;
27558;SDS011;15002;52.028;5.670;2023-04-08T15:15:21;10.30;;;8.10;;